sensor_id;sensor_type;location;lat;lon;timestamp;P1;durP1;ratioP1;P2;durP2;ratioP2
18407;SDS011;9330;52.210;21.174;2022-09-13T00:01:51;18.88;;;15.32;;
18407;SDS011;9330;52.210;21.174;2022-09-13T00:04:20;15.77;;;14.05;;
18407;SDS011;9330;52.210;21.174;2022-09-13T00:06:47;15.40;;;13.80;;
18407;SDS011;9330;52.210;21.174;2022-09-13T00:09:14;17.83;;;13.70;;
18407;SDS011;9330;52.210;21.174;2022-09-13T00:11:41;14.85;;;13.25;;
18407;SDS011;9330;52.210;21.174;2022-09-13T00:14:08;15.05;;;13.15;;
18407;SDS011;9330;52.210;21.174;2022-09-13T00:16:35;14.25;;;12.27;;
18407;SDS011;9330;52.210;21.174;2022-09-13T00:19:02;14.35;;;11.55;;
18407;SDS011;9330;52.210;21.174;2022-09-13T00:21:31;13.52;;;12.13;;
18407;SDS011;9330;52.210;21.174;2022-09-13T00:23:58;13.20;;;11.80;;
18407;SDS011;9330;52.210;21.174;2022-09-13T00:26:26;13.05;;;11.18;;
18407;SDS011;9330;52.210;21.174;2022-09-13T00:28:55;13.13;;;11.63;;
18407;SDS011;9330;52.210;21.174;2022-09-13T00:31:24;13.20;;;10.90;;
18407;SDS011;9330;52.210;21.174;2022-09-13T00:33:52;13.07;;;10.80;;
18407;SDS011;9330;52.210;21.174;2022-09-13T00:36:19;12.85;;;11.10;;
18407;SDS011;9330;52.210;21.174;2022-09-13T00:38:48;12.13;;;10.80;;
18407;SDS011;9330;52.210;21.174;2022-09-13T00:41:16;12.38;;;10.27;;
18407;SDS011;9330;52.210;21.174;2022-09-13T00:43:46;12.25;;;10.95;;
18407;SDS011;9330;52.210;21.174;2022-09-13T00:46:20;11.32;;;10.13;;
18407;SDS011;9330;52.210;21.174;2022-09-13T00:48:54;11.07;;;9.85;;
18407;SDS011;9330;52.210;21.174;2022-09-13T00:51:25;12.30;;;10.00;;
18407;SDS011;9330;52.210;21.174;2022-09-13T00:53:54;11.45;;;9.98;;
18407;SDS011;9330;52.210;21.174;2022-09-13T00:56:26;11.43;;;9.95;;
18407;SDS011;9330;52.210;21.174;2022-09-13T00:58:58;12.23;;;9.85;;
18407;SDS011;9330;52.210;21.174;2022-09-13T01:01:30;9.93;;;8.95;;
18407;SDS011;9330;52.210;21.174;2022-09-13T01:04:01;14.25;;;9.38;;
18407;SDS011;9330;52.210;21.174;2022-09-13T01:06:30;10.10;;;9.07;;
18407;SDS011;9330;52.210;21.174;2022-09-13T01:09:01;12.18;;;9.95;;
18407;SDS011;9330;52.210;21.174;2022-09-13T01:11:31;10.43;;;8.82;;
18407;SDS011;9330;52.210;21.174;2022-09-13T01:14:06;10.02;;;8.90;;
18407;SDS011;9330;52.210;21.174;2022-09-13T01:16:34;10.25;;;9.25;;
18407;SDS011;9330;52.210;21.174;2022-09-13T01:19:01;11.73;;;9.18;;
18407;SDS011;9330;52.210;21.174;2022-09-13T01:24:44;9.32;;;8.23;;
18407;SDS011;9330;52.210;21.174;2022-09-13T01:27:34;12.95;;;9.00;;
18407;SDS011;9330;52.210;21.174;2022-09-13T01:30:17;10.63;;;8.73;;
18407;SDS011;9330;52.210;21.174;2022-09-13T01:33:00;9.57;;;7.90;;
18407;SDS011;9330;52.210;21.174;2022-09-13T01:35:56;9.45;;;8.55;;
18407;SDS011;9330;52.210;21.174;2022-09-13T01:38:47;10.32;;;8.05;;
18407;SDS011;9330;52.210;21.174;2022-09-13T01:41:26;9.98;;;8.20;;
18407;SDS011;9330;52.210;21.174;2022-09-13T01:44:11;11.27;;;8.30;;
18407;SDS011;9330;52.210;21.174;2022-09-13T01:46:48;8.52;;;7.72;;
18407;SDS011;9330;52.210;21.174;2022-09-13T01:49:24;9.52;;;8.15;;
18407;SDS011;9330;52.210;21.174;2022-09-13T01:51:58;8.77;;;7.88;;
18407;SDS011;9330;52.210;21.174;2022-09-13T01:54:29;12.20;;;8.00;;
18407;SDS011;9330;52.210;21.174;2022-09-13T01:57:05;11.20;;;8.32;;
18407;SDS011;9330;52.210;21.174;2022-09-13T01:59:38;10.38;;;7.80;;
18407;SDS011;9330;52.210;21.174;2022-09-13T02:02:15;10.10;;;8.20;;
18407;SDS011;9330;52.210;21.174;2022-09-13T02:04:49;9.50;;;8.50;;
18407;SDS011;9330;52.210;21.174;2022-09-13T02:07:20;10.25;;;9.10;;
18407;SDS011;9330;52.210;21.174;2022-09-13T02:09:50;9.60;;;8.52;;
18407;SDS011;9330;52.210;21.174;2022-09-13T02:12:22;10.32;;;9.07;;
18407;SDS011;9330;52.210;21.174;2022-09-13T02:14:54;11.45;;;9.18;;
18407;SDS011;9330;52.210;21.174;2022-09-13T02:17:26;9.68;;;8.68;;
18407;SDS011;9330;52.210;21.174;2022-09-13T02:19:56;12.40;;;8.60;;
18407;SDS011;9330;52.210;21.174;2022-09-13T02:22:27;11.30;;;8.85;;
18407;SDS011;9330;52.210;21.174;2022-09-13T02:25:00;9.98;;;8.65;;
18407;SDS011;9330;52.210;21.174;2022-09-13T02:27:35;9.95;;;8.73;;
18407;SDS011;9330;52.210;21.174;2022-09-13T02:30:06;11.15;;;9.35;;
18407;SDS011;9330;52.210;21.174;2022-09-13T02:32:37;10.32;;;8.77;;
18407;SDS011;9330;52.210;21.174;2022-09-13T02:35:09;10.90;;;8.57;;
18407;SDS011;9330;52.210;21.174;2022-09-13T02:37:41;9.73;;;8.55;;
18407;SDS011;9330;52.210;21.174;2022-09-13T02:40:14;10.18;;;7.93;;
18407;SDS011;9330;52.210;21.174;2022-09-13T02:42:47;10.57;;;8.18;;
18407;SDS011;9330;52.210;21.174;2022-09-13T02:45:18;10.65;;;8.10;;
18407;SDS011;9330;52.210;21.174;2022-09-13T02:47:55;9.10;;;8.20;;
18407;SDS011;9330;52.210;21.174;2022-09-13T02:50:29;10.60;;;8.88;;
18407;SDS011;9330;52.210;21.174;2022-09-13T02:53:08;9.90;;;8.23;;
18407;SDS011;9330;52.210;21.174;2022-09-13T02:55:41;10.95;;;9.35;;
18407;SDS011;9330;52.210;21.174;2022-09-13T02:58:17;11.70;;;8.70;;
18407;SDS011;9330;52.210;21.174;2022-09-13T03:00:46;11.40;;;9.10;;
18407;SDS011;9330;52.210;21.174;2022-09-13T03:03:15;11.27;;;8.43;;
18407;SDS011;9330;52.210;21.174;2022-09-13T03:05:42;10.18;;;8.70;;
18407;SDS011;9330;52.210;21.174;2022-09-13T03:08:10;10.10;;;8.50;;
18407;SDS011;9330;52.210;21.174;2022-09-13T03:10:43;8.93;;;7.95;;
18407;SDS011;9330;52.210;21.174;2022-09-13T03:13:20;10.55;;;8.32;;
18407;SDS011;9330;52.210;21.174;2022-09-13T03:16:14;9.85;;;8.48;;
18407;SDS011;9330;52.210;21.174;2022-09-13T03:19:00;10.02;;;8.82;;
18407;SDS011;9330;52.210;21.174;2022-09-13T03:21:49;12.50;;;8.70;;
18407;SDS011;9330;52.210;21.174;2022-09-13T03:24:35;10.50;;;8.55;;
18407;SDS011;9330;52.210;21.174;2022-09-13T03:27:16;10.07;;;9.00;;
18407;SDS011;9330;52.210;21.174;2022-09-13T03:29:49;9.88;;;8.82;;
18407;SDS011;9330;52.210;21.174;2022-09-13T03:32:23;10.70;;;9.45;;
18407;SDS011;9330;52.210;21.174;2022-09-13T03:35:00;12.88;;;9.00;;
18407;SDS011;9330;52.210;21.174;2022-09-13T03:37:34;10.95;;;9.10;;
18407;SDS011;9330;52.210;21.174;2022-09-13T03:40:08;10.63;;;8.95;;
18407;SDS011;9330;52.210;21.174;2022-09-13T03:42:39;10.73;;;8.60;;
18407;SDS011;9330;52.210;21.174;2022-09-13T03:45:12;10.63;;;9.27;;
18407;SDS011;9330;52.210;21.174;2022-09-13T03:47:42;11.40;;;9.23;;
18407;SDS011;9330;52.210;21.174;2022-09-13T03:50:16;10.25;;;8.65;;
18407;SDS011;9330;52.210;21.174;2022-09-13T03:52:46;9.77;;;8.75;;
18407;SDS011;9330;52.210;21.174;2022-09-13T03:55:16;11.20;;;9.88;;
18407;SDS011;9330;52.210;21.174;2022-09-13T03:57:44;9.57;;;8.57;;
18407;SDS011;9330;52.210;21.174;2022-09-13T04:00:12;11.50;;;9.18;;
18407;SDS011;9330;52.210;21.174;2022-09-13T04:02:42;10.43;;;9.32;;
18407;SDS011;9330;52.210;21.174;2022-09-13T04:05:09;11.27;;;8.77;;
18407;SDS011;9330;52.210;21.174;2022-09-13T04:07:37;11.95;;;9.90;;
18407;SDS011;9330;52.210;21.174;2022-09-13T04:10:05;12.35;;;10.70;;
18407;SDS011;9330;52.210;21.174;2022-09-13T04:12:32;10.52;;;9.43;;
18407;SDS011;9330;52.210;21.174;2022-09-13T04:14:59;11.65;;;9.75;;
18407;SDS011;9330;52.210;21.174;2022-09-13T04:17:27;11.13;;;9.73;;
18407;SDS011;9330;52.210;21.174;2022-09-13T04:19:54;10.05;;;8.77;;
18407;SDS011;9330;52.210;21.174;2022-09-13T04:22:21;11.65;;;9.93;;
18407;SDS011;9330;52.210;21.174;2022-09-13T04:24:49;12.77;;;9.40;;
18407;SDS011;9330;52.210;21.174;2022-09-13T04:27:17;10.80;;;9.20;;
18407;SDS011;9330;52.210;21.174;2022-09-13T04:29:44;11.50;;;9.77;;
18407;SDS011;9330;52.210;21.174;2022-09-13T04:32:11;10.65;;;8.80;;
18407;SDS011;9330;52.210;21.174;2022-09-13T04:34:38;12.27;;;8.90;;
18407;SDS011;9330;52.210;21.174;2022-09-13T04:37:05;10.20;;;8.93;;
18407;SDS011;9330;52.210;21.174;2022-09-13T04:39:32;10.43;;;8.93;;
18407;SDS011;9330;52.210;21.174;2022-09-13T04:42:00;10.65;;;9.00;;
18407;SDS011;9330;52.210;21.174;2022-09-13T04:44:27;10.40;;;9.05;;
18407;SDS011;9330;52.210;21.174;2022-09-13T04:46:54;12.23;;;9.73;;
18407;SDS011;9330;52.210;21.174;2022-09-13T04:49:21;10.48;;;8.82;;
18407;SDS011;9330;52.210;21.174;2022-09-13T04:51:48;12.38;;;10.27;;
18407;SDS011;9330;52.210;21.174;2022-09-13T04:54:16;10.57;;;9.00;;
18407;SDS011;9330;52.210;21.174;2022-09-13T04:56:43;11.10;;;9.90;;
18407;SDS011;9330;52.210;21.174;2022-09-13T04:59:12;11.50;;;9.43;;
18407;SDS011;9330;52.210;21.174;2022-09-13T05:01:39;12.07;;;10.65;;
18407;SDS011;9330;52.210;21.174;2022-09-13T05:04:07;11.65;;;10.18;;
18407;SDS011;9330;52.210;21.174;2022-09-13T05:06:35;11.70;;;10.05;;
18407;SDS011;9330;52.210;21.174;2022-09-13T05:09:02;11.52;;;9.60;;
18407;SDS011;9330;52.210;21.174;2022-09-13T05:11:30;11.82;;;9.55;;
18407;SDS011;9330;52.210;21.174;2022-09-13T05:13:58;11.00;;;9.05;;
18407;SDS011;9330;52.210;21.174;2022-09-13T05:16:28;11.65;;;10.27;;
18407;SDS011;9330;52.210;21.174;2022-09-13T05:18:56;12.10;;;9.50;;
18407;SDS011;9330;52.210;21.174;2022-09-13T05:21:24;10.88;;;9.45;;
18407;SDS011;9330;52.210;21.174;2022-09-13T05:23:52;12.15;;;9.82;;
18407;SDS011;9330;52.210;21.174;2022-09-13T05:26:21;13.70;;;11.05;;
18407;SDS011;9330;52.210;21.174;2022-09-13T05:28:49;12.40;;;10.50;;
18407;SDS011;9330;52.210;21.174;2022-09-13T05:31:17;11.65;;;9.45;;
18407;SDS011;9330;52.210;21.174;2022-09-13T05:33:50;13.45;;;12.05;;
18407;SDS011;9330;52.210;21.174;2022-09-13T05:36:19;13.88;;;12.52;;
18407;SDS011;9330;52.210;21.174;2022-09-13T05:38:46;9.88;;;8.93;;
18407;SDS011;9330;52.210;21.174;2022-09-13T05:41:14;10.45;;;9.35;;
18407;SDS011;9330;52.210;21.174;2022-09-13T05:43:41;9.25;;;8.25;;
18407;SDS011;9330;52.210;21.174;2022-09-13T05:46:08;10.85;;;9.65;;
18407;SDS011;9330;52.210;21.174;2022-09-13T05:48:37;11.32;;;9.27;;
18407;SDS011;9330;52.210;21.174;2022-09-13T05:51:06;10.77;;;9.18;;
18407;SDS011;9330;52.210;21.174;2022-09-13T05:53:34;9.88;;;8.40;;
18407;SDS011;9330;52.210;21.174;2022-09-13T05:56:03;10.00;;;9.00;;
18407;SDS011;9330;52.210;21.174;2022-09-13T05:58:31;10.13;;;9.13;;
18407;SDS011;9330;52.210;21.174;2022-09-13T06:00:59;10.02;;;9.02;;
18407;SDS011;9330;52.210;21.174;2022-09-13T06:03:26;9.80;;;8.68;;
18407;SDS011;9330;52.210;21.174;2022-09-13T06:05:53;9.95;;;9.00;;
18407;SDS011;9330;52.210;21.174;2022-09-13T06:08:23;12.30;;;10.35;;
18407;SDS011;9330;52.210;21.174;2022-09-13T06:10:54;9.73;;;8.82;;
18407;SDS011;9330;52.210;21.174;2022-09-13T06:13:23;11.98;;;10.77;;
18407;SDS011;9330;52.210;21.174;2022-09-13T06:15:51;11.90;;;10.80;;
18407;SDS011;9330;52.210;21.174;2022-09-13T06:18:19;11.32;;;10.23;;
18407;SDS011;9330;52.210;21.174;2022-09-13T06:20:47;11.38;;;9.50;;
18407;SDS011;9330;52.210;21.174;2022-09-13T06:23:14;12.80;;;9.30;;
18407;SDS011;9330;52.210;21.174;2022-09-13T06:25:43;10.63;;;9.45;;
18407;SDS011;9330;52.210;21.174;2022-09-13T06:28:10;12.52;;;9.57;;
18407;SDS011;9330;52.210;21.174;2022-09-13T06:30:37;11.52;;;10.32;;
18407;SDS011;9330;52.210;21.174;2022-09-13T06:33:04;12.45;;;11.10;;
18407;SDS011;9330;52.210;21.174;2022-09-13T06:35:31;13.07;;;10.82;;
18407;SDS011;9330;52.210;21.174;2022-09-13T06:37:58;11.35;;;10.15;;
18407;SDS011;9330;52.210;21.174;2022-09-13T06:40:25;13.32;;;11.27;;
18407;SDS011;9330;52.210;21.174;2022-09-13T06:42:54;13.55;;;12.15;;
18407;SDS011;9330;52.210;21.174;2022-09-13T06:45:21;15.02;;;11.75;;
18407;SDS011;9330;52.210;21.174;2022-09-13T06:47:48;12.07;;;10.77;;
18407;SDS011;9330;52.210;21.174;2022-09-13T06:50:19;13.88;;;12.40;;
18407;SDS011;9330;52.210;21.174;2022-09-13T06:52:46;13.82;;;12.43;;
18407;SDS011;9330;52.210;21.174;2022-09-13T06:55:14;13.93;;;12.52;;
18407;SDS011;9330;52.210;21.174;2022-09-13T06:57:41;14.20;;;12.77;;
18407;SDS011;9330;52.210;21.174;2022-09-13T07:00:10;16.35;;;13.70;;
18407;SDS011;9330;52.210;21.174;2022-09-13T07:02:39;16.30;;;14.48;;
18407;SDS011;9330;52.210;21.174;2022-09-13T07:05:07;17.10;;;15.27;;
18407;SDS011;9330;52.210;21.174;2022-09-13T07:07:35;17.98;;;15.77;;
18407;SDS011;9330;52.210;21.174;2022-09-13T07:10:02;19.60;;;16.80;;
18407;SDS011;9330;52.210;21.174;2022-09-13T07:12:31;19.60;;;17.50;;
18407;SDS011;9330;52.210;21.174;2022-09-13T07:15:01;22.90;;;19.40;;
18407;SDS011;9330;52.210;21.174;2022-09-13T07:17:29;21.13;;;18.48;;
18407;SDS011;9330;52.210;21.174;2022-09-13T07:19:57;20.02;;;17.85;;
18407;SDS011;9330;52.210;21.174;2022-09-13T07:22:24;21.05;;;18.40;;
18407;SDS011;9330;52.210;21.174;2022-09-13T07:24:52;21.98;;;17.67;;
18407;SDS011;9330;52.210;21.174;2022-09-13T07:27:19;17.45;;;15.60;;
18407;SDS011;9330;52.210;21.174;2022-09-13T07:29:46;20.67;;;17.50;;
18407;SDS011;9330;52.210;21.174;2022-09-13T07:32:13;22.00;;;19.55;;
18407;SDS011;9330;52.210;21.174;2022-09-13T07:34:41;21.80;;;18.55;;
18407;SDS011;9330;52.210;21.174;2022-09-13T07:37:09;21.60;;;19.00;;
18407;SDS011;9330;52.210;21.174;2022-09-13T07:39:36;21.83;;;18.52;;
18407;SDS011;9330;52.210;21.174;2022-09-13T07:42:03;21.77;;;19.42;;
18407;SDS011;9330;52.210;21.174;2022-09-13T07:44:30;22.00;;;19.45;;
18407;SDS011;9330;52.210;21.174;2022-09-13T07:46:57;21.02;;;18.23;;
18407;SDS011;9330;52.210;21.174;2022-09-13T07:49:24;21.42;;;19.15;;
18407;SDS011;9330;52.210;21.174;2022-09-13T07:51:53;22.00;;;19.42;;
18407;SDS011;9330;52.210;21.174;2022-09-13T07:54:20;24.58;;;19.75;;
18407;SDS011;9330;52.210;21.174;2022-09-13T07:56:47;22.00;;;17.80;;
18407;SDS011;9330;52.210;21.174;2022-09-13T07:59:15;22.15;;;18.60;;
18407;SDS011;9330;52.210;21.174;2022-09-13T08:01:44;19.83;;;17.30;;
18407;SDS011;9330;52.210;21.174;2022-09-13T08:04:13;18.42;;;16.10;;
18407;SDS011;9330;52.210;21.174;2022-09-13T08:06:42;18.83;;;14.95;;
18407;SDS011;9330;52.210;21.174;2022-09-13T08:09:12;17.92;;;16.02;;
18407;SDS011;9330;52.210;21.174;2022-09-13T08:11:40;17.48;;;15.60;;
18407;SDS011;9330;52.210;21.174;2022-09-13T08:14:09;17.35;;;14.65;;
18407;SDS011;9330;52.210;21.174;2022-09-13T08:16:37;15.70;;;14.00;;
18407;SDS011;9330;52.210;21.174;2022-09-13T08:19:05;15.77;;;14.18;;
18407;SDS011;9330;52.210;21.174;2022-09-13T08:21:34;13.90;;;12.40;;
18407;SDS011;9330;52.210;21.174;2022-09-13T08:24:02;15.23;;;12.55;;
18407;SDS011;9330;52.210;21.174;2022-09-13T08:26:32;14.93;;;12.70;;
18407;SDS011;9330;52.210;21.174;2022-09-13T08:29:02;14.43;;;12.82;;
18407;SDS011;9330;52.210;21.174;2022-09-13T08:31:30;14.52;;;12.57;;
18407;SDS011;9330;52.210;21.174;2022-09-13T08:33:58;13.68;;;12.13;;
18407;SDS011;9330;52.210;21.174;2022-09-13T08:36:25;14.48;;;11.55;;
18407;SDS011;9330;52.210;21.174;2022-09-13T08:38:53;12.10;;;10.90;;
18407;SDS011;9330;52.210;21.174;2022-09-13T08:41:30;12.30;;;11.00;;
18407;SDS011;9330;52.210;21.174;2022-09-13T08:44:20;11.73;;;9.20;;
18407;SDS011;9330;52.210;21.174;2022-09-13T08:46:52;10.10;;;9.05;;
18407;SDS011;9330;52.210;21.174;2022-09-13T08:49:24;8.73;;;7.93;;
18407;SDS011;9330;52.210;21.174;2022-09-13T08:51:53;8.45;;;7.53;;
18407;SDS011;9330;52.210;21.174;2022-09-13T08:54:24;7.38;;;6.63;;
18407;SDS011;9330;52.210;21.174;2022-09-13T08:56:55;8.55;;;6.22;;
18407;SDS011;9330;52.210;21.174;2022-09-13T08:59:33;8.07;;;5.45;;
18407;SDS011;9330;52.210;21.174;2022-09-13T09:02:22;6.00;;;5.05;;
18407;SDS011;9330;52.210;21.174;2022-09-13T09:05:02;6.72;;;5.45;;
18407;SDS011;9330;52.210;21.174;2022-09-13T09:07:38;4.60;;;3.90;;
18407;SDS011;9330;52.210;21.174;2022-09-13T09:10:11;6.10;;;4.20;;
18407;SDS011;9330;52.210;21.174;2022-09-13T09:12:43;7.32;;;5.07;;
18407;SDS011;9330;52.210;21.174;2022-09-13T09:15:15;8.27;;;4.60;;
18407;SDS011;9330;52.210;21.174;2022-09-13T09:17:47;10.25;;;6.25;;
18407;SDS011;9330;52.210;21.174;2022-09-13T09:20:23;6.70;;;4.90;;
18407;SDS011;9330;52.210;21.174;2022-09-13T09:22:57;5.50;;;4.93;;
18407;SDS011;9330;52.210;21.174;2022-09-13T09:25:30;5.15;;;4.53;;
18407;SDS011;9330;52.210;21.174;2022-09-13T09:28:01;9.75;;;5.78;;
18407;SDS011;9330;52.210;21.174;2022-09-13T09:30:38;6.03;;;4.75;;
18407;SDS011;9330;52.210;21.174;2022-09-13T09:33:20;6.60;;;5.50;;
18407;SDS011;9330;52.210;21.174;2022-09-13T09:35:57;6.90;;;5.20;;
18407;SDS011;9330;52.210;21.174;2022-09-13T09:38:32;4.88;;;4.00;;
18407;SDS011;9330;52.210;21.174;2022-09-13T09:41:04;5.68;;;4.35;;
18407;SDS011;9330;52.210;21.174;2022-09-13T09:43:41;4.70;;;4.22;;
18407;SDS011;9330;52.210;21.174;2022-09-13T09:46:12;4.20;;;3.72;;
18407;SDS011;9330;52.210;21.174;2022-09-13T09:48:43;6.00;;;4.72;;
18407;SDS011;9330;52.210;21.174;2022-09-13T09:51:15;6.13;;;4.43;;
18407;SDS011;9330;52.210;21.174;2022-09-13T09:53:46;6.63;;;4.07;;
18407;SDS011;9330;52.210;21.174;2022-09-13T09:56:20;7.10;;;4.18;;
18407;SDS011;9330;52.210;21.174;2022-09-13T09:58:50;5.45;;;4.43;;
18407;SDS011;9330;52.210;21.174;2022-09-13T10:01:21;5.00;;;4.10;;
18407;SDS011;9330;52.210;21.174;2022-09-13T10:03:51;5.97;;;4.68;;
18407;SDS011;9330;52.210;21.174;2022-09-13T10:06:26;4.90;;;4.40;;
18407;SDS011;9330;52.210;21.174;2022-09-13T10:08:56;5.82;;;4.35;;
18407;SDS011;9330;52.210;21.174;2022-09-13T10:11:44;9.48;;;3.97;;
18407;SDS011;9330;52.210;21.174;2022-09-13T10:17:16;6.88;;;4.75;;
18407;SDS011;9330;52.210;21.174;2022-09-13T10:19:53;4.95;;;3.97;;
18407;SDS011;9330;52.210;21.174;2022-09-13T10:22:23;5.57;;;3.90;;
18407;SDS011;9330;52.210;21.174;2022-09-13T10:24:51;4.88;;;4.07;;
18407;SDS011;9330;52.210;21.174;2022-09-13T10:27:23;4.45;;;3.75;;
18407;SDS011;9330;52.210;21.174;2022-09-13T10:29:55;3.33;;;3.03;;
18407;SDS011;9330;52.210;21.174;2022-09-13T10:32:26;5.18;;;3.75;;
18407;SDS011;9330;52.210;21.174;2022-09-13T10:34:54;4.65;;;4.18;;
18407;SDS011;9330;52.210;21.174;2022-09-13T10:37:26;3.58;;;3.28;;
18407;SDS011;9330;52.210;21.174;2022-09-13T10:39:59;4.10;;;3.70;;
18407;SDS011;9330;52.210;21.174;2022-09-13T10:42:31;5.38;;;3.90;;
18407;SDS011;9330;52.210;21.174;2022-09-13T10:45:00;4.38;;;3.97;;
18407;SDS011;9330;52.210;21.174;2022-09-13T10:47:30;4.18;;;3.20;;
18407;SDS011;9330;52.210;21.174;2022-09-13T10:52:46;5.57;;;3.50;;
18407;SDS011;9330;52.210;21.174;2022-09-13T11:00:55;4.90;;;3.45;;
18407;SDS011;9330;52.210;21.174;2022-09-13T11:03:47;3.72;;;3.08;;
18407;SDS011;9330;52.210;21.174;2022-09-13T11:06:26;5.00;;;3.20;;
18407;SDS011;9330;52.210;21.174;2022-09-13T11:09:00;3.35;;;2.60;;
18407;SDS011;9330;52.210;21.174;2022-09-13T11:11:36;3.58;;;2.80;;
18407;SDS011;9330;52.210;21.174;2022-09-13T11:14:16;5.40;;;2.97;;
18407;SDS011;9330;52.210;21.174;2022-09-13T11:16:58;5.25;;;2.70;;
18407;SDS011;9330;52.210;21.174;2022-09-13T11:19:40;3.33;;;2.63;;
18407;SDS011;9330;52.210;21.174;2022-09-13T11:22:21;4.57;;;3.58;;
18407;SDS011;9330;52.210;21.174;2022-09-13T11:25:03;10.48;;;3.58;;
18407;SDS011;9330;52.210;21.174;2022-09-13T11:27:44;4.88;;;2.72;;
18407;SDS011;9330;52.210;21.174;2022-09-13T11:30:20;4.13;;;3.03;;
18407;SDS011;9330;52.210;21.174;2022-09-13T11:33:01;2.60;;;2.40;;
18407;SDS011;9330;52.210;21.174;2022-09-13T11:35:42;3.10;;;2.28;;
18407;SDS011;9330;52.210;21.174;2022-09-13T11:38:22;5.25;;;2.50;;
18407;SDS011;9330;52.210;21.174;2022-09-13T11:41:09;3.50;;;2.20;;
18407;SDS011;9330;52.210;21.174;2022-09-13T11:43:51;6.05;;;2.30;;
18407;SDS011;9330;52.210;21.174;2022-09-13T11:46:30;3.28;;;2.42;;
18407;SDS011;9330;52.210;21.174;2022-09-13T11:49:09;4.70;;;2.10;;
18407;SDS011;9330;52.210;21.174;2022-09-13T11:51:50;2.65;;;2.00;;
18407;SDS011;9330;52.210;21.174;2022-09-13T11:54:30;6.05;;;2.17;;
18407;SDS011;9330;52.210;21.174;2022-09-13T11:57:09;2.88;;;1.90;;
18407;SDS011;9330;52.210;21.174;2022-09-13T11:59:41;3.00;;;1.70;;
18407;SDS011;9330;52.210;21.174;2022-09-13T12:02:13;2.03;;;1.55;;
18407;SDS011;9330;52.210;21.174;2022-09-13T12:04:50;3.08;;;1.77;;
18407;SDS011;9330;52.210;21.174;2022-09-13T12:07:24;3.53;;;1.70;;
18407;SDS011;9330;52.210;21.174;2022-09-13T12:09:59;5.18;;;1.67;;
18407;SDS011;9330;52.210;21.174;2022-09-13T12:12:32;5.90;;;1.88;;
18407;SDS011;9330;52.210;21.174;2022-09-13T12:15:02;4.20;;;1.90;;
18407;SDS011;9330;52.210;21.174;2022-09-13T12:17:35;2.90;;;1.83;;
18407;SDS011;9330;52.210;21.174;2022-09-13T12:20:11;4.72;;;2.10;;
18407;SDS011;9330;52.210;21.174;2022-09-13T12:22:43;4.57;;;2.13;;
18407;SDS011;9330;52.210;21.174;2022-09-13T12:25:17;7.18;;;2.22;;
18407;SDS011;9330;52.210;21.174;2022-09-13T12:27:50;7.25;;;2.03;;
18407;SDS011;9330;52.210;21.174;2022-09-13T12:30:23;9.93;;;2.58;;
18407;SDS011;9330;52.210;21.174;2022-09-13T12:32:57;11.07;;;2.70;;
18407;SDS011;9330;52.210;21.174;2022-09-13T12:35:26;12.82;;;2.95;;
18407;SDS011;9330;52.210;21.174;2022-09-13T12:38:12;5.78;;;2.10;;
18407;SDS011;9330;52.210;21.174;2022-09-13T12:40:53;6.07;;;2.00;;
18407;SDS011;9330;52.210;21.174;2022-09-13T12:43:40;5.03;;;2.50;;
18407;SDS011;9330;52.210;21.174;2022-09-13T12:46:40;4.68;;;1.88;;
18407;SDS011;9330;52.210;21.174;2022-09-13T12:49:25;5.20;;;2.25;;
18407;SDS011;9330;52.210;21.174;2022-09-13T12:52:24;5.45;;;2.05;;
18407;SDS011;9330;52.210;21.174;2022-09-13T12:55:14;61.15;;;8.85;;
18407;SDS011;9330;52.210;21.174;2022-09-13T12:58:02;30.73;;;5.25;;
18407;SDS011;9330;52.210;21.174;2022-09-13T13:00:58;16.17;;;2.83;;
18407;SDS011;9330;52.210;21.174;2022-09-13T13:03:33;4.93;;;2.17;;
18407;SDS011;9330;52.210;21.174;2022-09-13T13:06:07;6.22;;;2.00;;
18407;SDS011;9330;52.210;21.174;2022-09-13T13:08:42;2.88;;;2.03;;
18407;SDS011;9330;52.210;21.174;2022-09-13T13:11:16;2.70;;;1.83;;
18407;SDS011;9330;52.210;21.174;2022-09-13T13:13:52;3.88;;;1.90;;
18407;SDS011;9330;52.210;21.174;2022-09-13T13:16:24;2.00;;;1.83;;
18407;SDS011;9330;52.210;21.174;2022-09-13T13:18:53;2.85;;;2.15;;
18407;SDS011;9330;52.210;21.174;2022-09-13T13:27:27;4.13;;;2.35;;
18407;SDS011;9330;52.210;21.174;2022-09-13T13:33:12;3.38;;;2.00;;
18407;SDS011;9330;52.210;21.174;2022-09-13T13:35:42;3.88;;;2.30;;
18407;SDS011;9330;52.210;21.174;2022-09-13T13:47:51;2.40;;;2.15;;
18407;SDS011;9330;52.210;21.174;2022-09-13T13:50:32;2.88;;;2.67;;
18407;SDS011;9330;52.210;21.174;2022-09-13T13:53:13;2.63;;;2.20;;
18407;SDS011;9330;52.210;21.174;2022-09-13T13:55:46;3.30;;;2.47;;
18407;SDS011;9330;52.210;21.174;2022-09-13T13:58:22;2.88;;;2.28;;
18407;SDS011;9330;52.210;21.174;2022-09-13T14:01:10;5.05;;;2.83;;
18407;SDS011;9330;52.210;21.174;2022-09-13T14:03:49;3.25;;;2.67;;
18407;SDS011;9330;52.210;21.174;2022-09-13T14:06:29;4.78;;;2.65;;
18407;SDS011;9330;52.210;21.174;2022-09-13T14:09:01;9.25;;;2.97;;
18407;SDS011;9330;52.210;21.174;2022-09-13T14:11:36;4.57;;;2.65;;
18407;SDS011;9330;52.210;21.174;2022-09-13T14:17:14;3.17;;;2.38;;
18407;SDS011;9330;52.210;21.174;2022-09-13T14:20:12;4.07;;;2.72;;
18407;SDS011;9330;52.210;21.174;2022-09-13T14:22:42;5.07;;;2.70;;
18407;SDS011;9330;52.210;21.174;2022-09-13T14:25:13;5.93;;;2.97;;
18407;SDS011;9330;52.210;21.174;2022-09-13T14:27:49;4.78;;;2.90;;
18407;SDS011;9330;52.210;21.174;2022-09-13T14:30:19;6.90;;;3.17;;
18407;SDS011;9330;52.210;21.174;2022-09-13T14:32:49;4.65;;;2.95;;
18407;SDS011;9330;52.210;21.174;2022-09-13T14:35:26;4.68;;;3.25;;
18407;SDS011;9330;52.210;21.174;2022-09-13T14:37:55;4.03;;;2.95;;
18407;SDS011;9330;52.210;21.174;2022-09-13T14:40:34;7.38;;;2.95;;
18407;SDS011;9330;52.210;21.174;2022-09-13T14:43:04;4.05;;;2.78;;
18407;SDS011;9330;52.210;21.174;2022-09-13T14:45:40;5.30;;;3.10;;
18407;SDS011;9330;52.210;21.174;2022-09-13T14:48:14;3.63;;;2.55;;
18407;SDS011;9330;52.210;21.174;2022-09-13T14:50:47;4.60;;;2.92;;
18407;SDS011;9330;52.210;21.174;2022-09-13T14:53:19;3.03;;;2.65;;
18407;SDS011;9330;52.210;21.174;2022-09-13T14:55:50;4.35;;;2.72;;
18407;SDS011;9330;52.210;21.174;2022-09-13T14:58:20;4.22;;;3.05;;
18407;SDS011;9330;52.210;21.174;2022-09-13T15:00:54;4.30;;;3.35;;
18407;SDS011;9330;52.210;21.174;2022-09-13T15:03:24;4.20;;;2.70;;
18407;SDS011;9330;52.210;21.174;2022-09-13T15:05:54;3.50;;;2.85;;
18407;SDS011;9330;52.210;21.174;2022-09-13T15:11:14;4.53;;;3.25;;
18407;SDS011;9330;52.210;21.174;2022-09-13T15:13:59;3.90;;;3.13;;
18407;SDS011;9330;52.210;21.174;2022-09-13T15:16:28;5.28;;;3.22;;
18407;SDS011;9330;52.210;21.174;2022-09-13T15:19:16;4.07;;;3.10;;
18407;SDS011;9330;52.210;21.174;2022-09-13T15:21:54;3.17;;;2.80;;
18407;SDS011;9330;52.210;21.174;2022-09-13T15:24:29;6.60;;;3.20;;
18407;SDS011;9330;52.210;21.174;2022-09-13T15:27:01;3.85;;;3.17;;
18407;SDS011;9330;52.210;21.174;2022-09-13T15:29:30;5.68;;;3.67;;
18407;SDS011;9330;52.210;21.174;2022-09-13T15:32:01;4.10;;;3.00;;
18407;SDS011;9330;52.210;21.174;2022-09-13T15:34:30;6.22;;;3.67;;
18407;SDS011;9330;52.210;21.174;2022-09-13T15:37:06;5.95;;;3.00;;
18407;SDS011;9330;52.210;21.174;2022-09-13T15:39:45;3.20;;;2.90;;
18407;SDS011;9330;52.210;21.174;2022-09-13T15:42:13;5.18;;;3.17;;
18407;SDS011;9330;52.210;21.174;2022-09-13T15:44:41;4.50;;;2.97;;
18407;SDS011;9330;52.210;21.174;2022-09-13T15:47:09;5.18;;;3.15;;
18407;SDS011;9330;52.210;21.174;2022-09-13T15:49:41;4.78;;;3.58;;